Time;durP1;ratioP1;P1;durP2;ratioP2;P2;SDS_P1;SDS_P2;PMS_P1;PMS_P2;Temp;Humidity;BMP_temperature;BMP_pressure;BME280_temperature;BME280_humidity;BME280_pressure;Samples;Min_cycle;Max_cycle;Signal;HPM_P1;HPM_P2
2021/06/28 00:01:01;;;;;;;6.10;5.50;;;22.90;76.00;;;;;;5093197;28;20464;-70
2021/06/28 00:03:28;;;;;;;6.57;5.93;;;22.80;75.90;;;;;;5092987;28;20440;-70
2021/06/28 00:05:55;;;;;;;7.40;5.63;;;22.80;76.00;;;;;;5093090;28;20842;-70
2021/06/28 00:08:22;;;;;;;7.53;6.57;;;22.80;76.00;;;;;;5093142;28;20513;-70
2021/06/28 00:10:48;;;;;;;7.20;6.40;;;22.70;75.80;;;;;;5093071;28;20470;-72
2021/06/28 00:13:15;;;;;;;7.67;6.97;;;22.70;76.10;;;;;;5093393;28;20429;-71
2021/06/28 00:15:43;;;;;;;6.27;5.63;;;22.70;76.10;;;;;;5093094;28;20531;-70
2021/06/28 00:18:11;;;;;;;7.83;6.03;;;22.60;76.00;;;;;;5093118;28;20937;-70
2021/06/28 00:20:39;;;;;;;6.70;6.10;;;22.60;76.10;;;;;;5096630;28;20967;-72
2021/06/28 00:23:06;;;;;;;7.43;6.70;;;22.60;76.00;;;;;;5096785;28;20440;-72
2021/06/28 00:25:33;;;;;;;6.37;5.87;;;22.60;76.00;;;;;;5096285;28;20841;-71
2021/06/28 00:28:00;;;;;;;7.63;6.60;;;22.60;76.10;;;;;;5096653;28;20447;-71
2021/06/28 00:30:28;;;;;;;8.13;7.03;;;22.50;76.00;;;;;;5097083;28;20766;-71
2021/06/28 00:32:56;;;;;;;6.20;5.60;;;22.50;76.10;;;;;;5096392;28;20439;-71
2021/06/28 00:35:23;;;;;;;7.83;6.00;;;22.50;76.20;;;;;;5096622;28;20463;-71
2021/06/28 00:37:50;;;;;;;6.93;6.33;;;22.40;76.30;;;;;;5096545;28;20424;-72
2021/06/28 00:40:19;;;;;;;7.33;6.63;;;22.40;76.40;;;;;;5096467;28;20448;-72
2021/06/28 00:42:46;;;;;;;8.07;7.27;;;22.40;76.50;;;;;;5096002;28;20471;-71
2021/06/28 00:45:22;;;;;;;8.00;6.90;;;22.40;76.50;;;;;;5096253;28;20831;-71
2021/06/28 00:47:50;;;;;;;7.40;6.70;;;22.40;76.50;;;;;;5096593;28;20428;-71
2021/06/28 00:50:19;;;;;;;7.27;6.57;;;22.30;76.30;;;;;;5096228;28;20455;-71
2021/06/28 00:52:49;;;;;;;8.00;7.30;;;22.30;76.40;;;;;;5096179;28;20470;-72
2021/06/28 00:55:16;;;;;;;6.93;6.23;;;22.20;76.40;;;;;;5096199;28;20431;-71
2021/06/28 00:57:43;;;;;;;8.23;5.80;;;22.20;76.30;;;;;;5096112;28;20446;-71
2021/06/28 01:00:12;;;;;;;6.80;6.20;;;22.10;76.30;;;;;;5096051;28;20443;-71
2021/06/28 01:02:39;;;;;;;8.63;6.30;;;22.10;76.30;;;;;;5095691;28;20832;-72
2021/06/28 01:05:08;;;;;;;7.20;5.80;;;22.10;76.40;;;;;;5095902;28;20463;-71
2021/06/28 01:07:36;;;;;;;5.83;5.33;;;22.10;76.10;;;;;;5095928;28;20447;-72
2021/06/28 01:10:04;;;;;;;6.07;5.57;;;22.10;76.00;;;;;;5095656;28;20443;-71
2021/06/28 01:12:31;;;;;;;7.13;6.37;;;22.00;75.90;;;;;;5095799;28;20470;-72
2021/06/28 01:14:58;;;;;;;7.20;6.17;;;22.10;76.10;;;;;;5095511;28;20957;-72
2021/06/28 01:17:25;;;;;;;7.07;6.40;;;22.00;76.10;;;;;;5095803;28;20448;-72
2021/06/28 01:19:57;;;;;;;7.50;6.63;;;22.00;76.30;;;;;;5095759;28;20459;-71
2021/06/28 01:22:26;;;;;;;10.23;5.97;;;22.00;76.70;;;;;;5095777;28;20464;-71
2021/06/28 01:24:57;;;;;;;8.17;6.10;;;21.90;76.70;;;;;;5095708;28;20522;-71
2021/06/28 01:27:25;;;;;;;9.90;5.90;;;21.90;76.50;;;;;;5095927;28;20427;-71
2021/06/28 01:29:53;;;;;;;9.00;6.00;;;21.80;76.50;;;;;;5095464;28;20459;-71
2021/06/28 01:32:20;;;;;;;8.50;5.80;;;21.80;76.40;;;;;;5095523;28;20459;-71
2021/06/28 01:34:47;;;;;;;8.90;6.13;;;21.80;76.10;;;;;;5095153;28;20454;-71
2021/06/28 01:37:23;;;;;;;6.20;5.60;;;21.70;76.10;;;;;;5095606;28;20443;-71
2021/06/28 01:39:51;;;;;;;11.00;6.97;;;21.70;76.00;;;;;;5095720;28;20431;-71
2021/06/28 01:42:20;;;;;;;7.50;5.93;;;21.60;75.90;;;;;;5095262;28;20804;-71
2021/06/28 01:44:46;;;;;;;21.63;6.23;;;21.60;76.00;;;;;;5095336;28;20478;-71
2021/06/28 01:47:13;;;;;;;11.50;6.93;;;21.50;76.10;;;;;;5095073;28;20448;-71
2021/06/28 01:49:40;;;;;;;8.30;6.00;;;21.60;76.40;;;;;;5095010;28;20428;-71
2021/06/28 01:52:07;;;;;;;14.07;6.87;;;21.50;76.40;;;;;;5095351;28;20471;-72
2021/06/28 01:54:34;;;;;;;11.00;6.37;;;21.50;76.40;;;;;;5095909;28;20440;-71
2021/06/28 01:57:02;;;;;;;12.70;6.70;;;21.50;77.00;;;;;;5095653;28;20447;-71
2021/06/28 01:59:32;;;;;;;8.80;6.40;;;21.50;78.10;;;;;;5095366;28;20493;-71
2021/06/28 02:02:00;;;;;;;10.70;7.90;;;21.50;77.70;;;;;;5094646;28;20463;-72
2021/06/28 02:04:28;;;;;;;11.77;8.33;;;21.50;78.10;;;;;;5094333;28;20444;-72
2021/06/28 02:06:57;;;;;;;9.63;8.47;;;21.50;78.40;;;;;;5094680;28;20432;-72
2021/06/28 02:09:23;;;;;;;11.30;9.30;;;21.50;78.90;;;;;;5094420;28;20937;-72
2021/06/28 02:11:51;;;;;;;12.50;9.07;;;21.50;79.10;;;;;;5094267;28;20854;-72
2021/06/28 02:14:18;;;;;;;11.40;9.37;;;21.40;79.40;;;;;;5094530;28;20454;-72
2021/06/28 02:16:48;;;;;;;11.43;10.33;;;21.40;79.80;;;;;;5094401;28;20436;-71
2021/06/28 02:19:15;;;;;;;17.43;12.40;;;21.40;80.20;;;;;;5094336;28;20436;-71
2021/06/28 02:25:06;;;;;;;16.30;14.60;;;21.50;81.80;;;;;;5098464;22;20530;-85
2021/06/28 02:27:33;;;;;;;15.33;13.20;;;21.50;82.80;;;;;;5095076;28;20447;-85
2021/06/28 02:30:01;;;;;;;19.00;14.40;;;21.50;82.90;;;;;;5094945;28;20448;-84
2021/06/28 02:32:29;;;;;;;13.97;12.67;;;21.60;82.80;;;;;;5094783;28;20782;-85
2021/06/28 02:34:59;;;;;;;18.03;14.80;;;21.60;82.20;;;;;;5095100;28;20969;-85
2021/06/28 02:37:26;;;;;;;15.50;13.47;;;21.50;81.80;;;;;;5094547;28;20535;-84
2021/06/28 02:39:52;;;;;;;14.27;12.70;;;21.60;81.20;;;;;;5094877;28;20458;-86
2021/06/28 02:42:19;;;;;;;13.57;12.03;;;21.50;81.00;;;;;;5094647;28;20474;-85
2021/06/28 02:44:46;;;;;;;13.37;12.10;;;21.50;81.00;;;;;;5094622;28;20456;-84
2021/06/28 02:47:13;;;;;;;17.43;13.47;;;21.50;80.70;;;;;;5095407;28;20443;-84
2021/06/28 02:49:41;;;;;;;14.67;12.87;;;21.50;80.30;;;;;;5095189;28;20936;-85
2021/06/28 02:52:08;;;;;;;14.27;11.77;;;21.50;80.20;;;;;;5094769;28;20455;-84
2021/06/28 02:54:34;;;;;;;19.40;11.73;;;21.50;80.00;;;;;;5095635;28;20472;-84
2021/06/28 02:57:01;;;;;;;13.80;12.30;;;21.40;80.10;;;;;;5094897;28;20444;-84
2021/06/28 02:59:28;;;;;;;14.80;11.47;;;21.40;80.00;;;;;;5094787;28;20929;-84
2021/06/28 03:01:55;;;;;;;19.17;12.83;;;21.40;80.10;;;;;;5094824;28;20552;-84
2021/06/28 03:04:22;;;;;;;14.83;12.43;;;21.30;80.00;;;;;;5094688;28;20448;-84
2021/06/28 03:06:50;;;;;;;18.20;14.10;;;21.30;80.00;;;;;;5094485;28;20569;-84
2021/06/28 03:09:17;;;;;;;13.03;9.60;;;21.30;80.40;;;;;;5094512;28;20455;-84
2021/06/28 03:11:44;;;;;;;13.23;11.70;;;21.40;80.10;;;;;;5094611;28;20442;-85
2021/06/28 03:14:11;;;;;;;14.20;11.10;;;21.30;79.50;;;;;;5094163;28;20967;-85
2021/06/28 03:16:38;;;;;;;15.20;11.63;;;21.30;79.20;;;;;;5094697;28;20445;-84
2021/06/28 03:19:04;;;;;;;18.53;11.87;;;21.30;79.40;;;;;;5094446;28;20444;-84
2021/06/28 03:21:31;;;;;;;17.80;11.67;;;21.30;79.00;;;;;;5094139;28;20435;-84
2021/06/28 03:23:59;;;;;;;22.90;12.10;;;21.30;78.50;;;;;;5095085;28;20446;-86
2021/06/28 03:26:26;;;;;;;17.80;11.63;;;21.20;78.20;;;;;;5094281;28;20496;-85
2021/06/28 03:28:53;;;;;;;17.83;12.30;;;21.20;78.30;;;;;;5093976;28;20452;-85
2021/06/28 03:31:20;;;;;;;14.27;10.43;;;21.10;78.30;;;;;;5094199;28;20459;-85
2021/06/28 03:33:46;;;;;;;15.50;11.23;;;21.10;78.60;;;;;;5094295;28;20450;-85
2021/06/28 03:36:13;;;;;;;18.20;10.60;;;21.10;78.70;;;;;;5093874;28;20456;-85
2021/06/28 03:38:40;;;;;;;16.67;11.40;;;21.10;78.90;;;;;;5093899;28;20440;-85
2021/06/28 03:41:08;;;;;;;22.60;12.53;;;21.10;78.90;;;;;;5094089;28;20405;-84
2021/06/28 03:43:35;;;;;;;17.87;11.90;;;21.10;79.10;;;;;;5094734;28;20824;-86
2021/06/28 03:46:02;;;;;;;20.47;11.57;;;21.10;79.20;;;;;;5100739;28;20487;-85
2021/06/28 03:48:28;;;;;;;17.10;11.27;;;21.00;79.30;;;;;;5096482;28;20458;-86
2021/06/28 03:50:55;;;;;;;12.90;11.53;;;21.10;79.50;;;;;;5096855;28;20436;-85
2021/06/28 03:53:22;;;;;;;15.83;12.60;;;21.10;79.60;;;;;;5099720;28;20458;-85
2021/06/28 03:55:49;;;;;;;21.80;12.50;;;21.00;79.60;;;;;;5102282;28;20468;-85
2021/06/28 03:58:17;;;;;;;19.73;13.00;;;21.10;80.10;;;;;;5101693;28;20440;-84
2021/06/28 04:00:45;;;;;;;17.53;13.57;;;21.00;80.30;;;;;;5101686;28;20815;-84
2021/06/28 04:03:12;;;;;;;14.63;13.03;;;21.00;80.40;;;;;;5100762;28;20448;-85
2021/06/28 04:05:39;;;;;;;16.40;13.43;;;21.00;80.30;;;;;;5102369;28;20566;-85
2021/06/28 04:08:06;;;;;;;15.83;13.23;;;21.00;80.40;;;;;;5101718;28;20505;-85
2021/06/28 04:10:33;;;;;;;16.50;13.30;;;21.10;80.80;;;;;;5101356;28;20458;-85
2021/06/28 04:13:00;;;;;;;14.83;13.27;;;21.00;80.80;;;;;;5100784;28;20803;-84
2021/06/28 04:15:28;;;;;;;15.10;12.20;;;21.00;80.80;;;;;;5101461;28;20456;-85
2021/06/28 04:17:55;;;;;;;18.80;14.53;;;21.10;81.00;;;;;;5101851;28;20447;-87
2021/06/28 04:20:24;;;;;;;15.57;13.60;;;21.10;81.00;;;;;;5110041;28;20428;-86
2021/06/28 04:22:52;;;;;;;14.93;13.00;;;21.10;81.40;;;;;;5116819;28;20439;-86
2021/06/28 04:25:22;;;;;;;14.97;13.43;;;21.10;81.50;;;;;;5108158;28;20519;-87
2021/06/28 04:27:49;;;;;;;15.43;11.87;;;21.10;81.60;;;;;;5102848;28;20487;-87
2021/06/28 04:30:17;;;;;;;16.30;11.97;;;21.10;81.60;;;;;;5109830;28;20522;-86
2021/06/28 04:32:46;;;;;;;18.10;12.13;;;21.10;81.50;;;;;;5121641;28;20435;-85
2021/06/28 04:35:15;;;;;;;13.03;11.40;;;21.10;81.50;;;;;;5103825;28;20463;-86
2021/06/28 04:37:42;;;;;;;17.37;12.77;;;21.10;81.60;;;;;;5102218;28;20435;-86
2021/06/28 04:40:12;;;;;;;16.67;11.40;;;21.20;81.70;;;;;;5101495;28;20456;-84
2021/06/28 04:42:39;;;;;;;17.93;13.20;;;21.20;82.00;;;;;;5101805;28;20443;-86
2021/06/28 04:45:08;;;;;;;14.53;11.30;;;21.20;82.10;;;;;;5102656;28;20499;-86
2021/06/28 04:47:35;;;;;;;15.60;14.00;;;21.20;82.50;;;;;;5102126;28;20475;-85
2021/06/28 04:53:25;;;;;;;16.97;13.70;;;21.30;83.20;;;;;;5100366;28;20439;-84
2021/06/28 04:55:52;;;;;;;19.33;14.63;;;21.30;83.40;;;;;;5102707;28;20468;-86
2021/06/28 04:58:18;;;;;;;16.30;14.37;;;21.30;83.70;;;;;;5100964;28;20430;-83
2021/06/28 05:00:45;;;;;;;19.90;14.00;;;21.40;84.20;;;;;;5097468;28;20450;-84
2021/06/28 05:03:12;;;;;;;14.70;13.27;;;21.40;84.40;;;;;;5097183;28;20951;-84
2021/06/28 05:05:39;;;;;;;16.57;13.97;;;21.40;84.50;;;;;;5097621;28;20983;-85
2021/06/28 05:08:06;;;;;;;19.83;13.00;;;21.50;84.60;;;;;;5098853;28;20444;-84
2021/06/28 05:10:34;;;;;;;14.97;13.57;;;21.50;84.70;;;;;;5101239;28;20452;-84
2021/06/28 05:13:00;;;;;;;15.50;13.97;;;21.50;84.80;;;;;;5100839;28;20443;-83
2021/06/28 05:15:27;;;;;;;16.47;13.97;;;21.60;85.00;;;;;;5098876;28;20464;-82
2021/06/28 05:17:54;;;;;;;18.13;13.73;;;21.60;85.00;;;;;;5097735;28;20444;-84
2021/06/28 05:20:21;;;;;;;17.90;15.93;;;21.70;85.00;;;;;;5097480;28;20413;-82
2021/06/28 05:22:47;;;;;;;17.53;15.90;;;21.80;85.30;;;;;;5096544;28;20439;-82
2021/06/28 05:25:14;;;;;;;14.50;12.90;;;21.80;85.60;;;;;;5096924;28;20977;-84
2021/06/28 05:27:42;;;;;;;16.40;14.50;;;21.90;85.80;;;;;;5096566;28;20490;-82
2021/06/28 05:30:13;;;;;;;15.80;13.00;;;21.90;85.50;;;;;;5096252;28;20459;-84
2021/06/28 05:32:40;;;;;;;19.43;16.27;;;22.00;85.80;;;;;;5096766;28;20497;-82
2021/06/28 05:35:09;;;;;;;20.60;17.27;;;22.00;85.90;;;;;;5096043;28;20462;-83
2021/06/28 05:37:36;;;;;;;19.73;17.60;;;22.10;86.20;;;;;;5096946;28;20522;-84
2021/06/28 05:40:04;;;;;;;17.77;16.17;;;22.10;86.50;;;;;;5096300;28;20933;-82
2021/06/28 05:42:31;;;;;;;16.30;14.60;;;22.10;86.20;;;;;;5096389;28;20452;-83
2021/06/28 05:44:59;;;;;;;17.67;14.30;;;22.20;86.20;;;;;;5097397;28;20452;-86
2021/06/28 05:47:26;;;;;;;21.90;17.27;;;22.30;86.00;;;;;;5098204;28;20460;-82
2021/06/28 05:49:53;;;;;;;20.10;15.87;;;22.30;85.80;;;;;;5096425;28;20853;-83
2021/06/28 05:52:21;;;;;;;17.67;15.87;;;22.40;85.80;;;;;;5096431;28;20452;-84
2021/06/28 05:54:49;;;;;;;22.90;17.90;;;22.40;85.60;;;;;;5096277;28;20467;-83
2021/06/28 05:57:18;;;;;;;24.37;18.60;;;22.60;85.70;;;;;;5096298;28;20455;-83
2021/06/28 05:59:45;;;;;;;22.80;18.27;;;22.60;85.40;;;;;;5097331;28;20790;-83
2021/06/28 06:02:14;;;;;;;21.03;19.03;;;22.70;85.30;;;;;;5096218;28;20443;-83
2021/06/28 06:04:41;;;;;;;19.73;17.50;;;22.70;85.20;;;;;;5096106;28;20468;-82
2021/06/28 06:07:08;;;;;;;17.60;14.10;;;22.80;85.00;;;;;;5095269;28;20467;-83
2021/06/28 06:09:36;;;;;;;19.47;17.40;;;23.00;84.60;;;;;;5095798;28;20469;-83
2021/06/28 06:12:02;;;;;;;17.23;14.93;;;23.10;84.10;;;;;;5095678;28;20444;-83
2021/06/28 06:14:29;;;;;;;25.37;21.60;;;23.20;83.40;;;;;;5096033;28;20472;-84
2021/06/28 06:16:56;;;;;;;22.20;19.60;;;23.30;83.30;;;;;;5094728;28;20432;-83
2021/06/28 06:19:24;;;;;;;19.67;17.73;;;23.40;83.20;;;;;;5095862;28;20409;-83
2021/06/28 06:21:51;;;;;;;16.67;14.73;;;23.40;83.10;;;;;;5095574;28;20432;-83
2021/06/28 06:24:19;;;;;;;26.10;23.53;;;23.50;82.60;;;;;;5095487;28;20463;-83
2021/06/28 06:26:46;;;;;;;22.27;19.97;;;23.60;81.70;;;;;;5095048;28;20988;-83
2021/06/28 06:29:12;;;;;;;17.43;15.50;;;23.70;81.60;;;;;;5094888;28;20949;-82
2021/06/28 06:31:39;;;;;;;19.80;16.80;;;23.80;81.00;;;;;;5094568;28;20451;-82
2021/06/28 06:34:06;;;;;;;19.90;17.87;;;23.90;80.10;;;;;;5094588;28;20405;-82
2021/06/28 06:36:34;;;;;;;23.00;20.80;;;24.00;79.50;;;;;;5094765;28;20421;-82
2021/06/28 06:39:01;;;;;;;21.10;18.60;;;24.10;78.80;;;;;;5094451;28;20439;-82
2021/06/28 06:41:28;;;;;;;24.43;20.23;;;24.30;79.00;;;;;;5094476;28;20436;-83
2021/06/28 06:43:54;;;;;;;20.20;18.10;;;24.40;78.80;;;;;;5095943;28;20443;-83
2021/06/28 06:46:21;;;;;;;17.33;15.60;;;24.50;79.00;;;;;;5097693;28;20486;-83
2021/06/28 06:48:50;;;;;;;14.57;13.13;;;24.70;77.30;;;;;;5098907;28;20463;-88
2021/06/28 06:51:39;;;;;;;20.57;18.00;;;24.90;75.70;;;;;;5099388;28;20447;-87
2021/06/28 06:54:26;;;;;;;17.80;15.20;;;25.10;74.90;;;;;;5107901;22;20524;-71
2021/06/28 06:56:53;;;;;;;16.87;15.20;;;25.30;73.50;;;;;;5114461;28;20514;-71
2021/06/28 06:59:20;;;;;;;16.03;14.43;;;25.50;72.80;;;;;;5114241;28;20442;-71
2021/06/28 07:01:46;;;;;;;15.87;14.27;;;25.60;72.90;;;;;;5114204;28;20443;-71
2021/06/28 07:04:14;;;;;;;12.37;11.17;;;25.70;71.60;;;;;;5114410;28;20802;-71
2021/06/28 07:06:41;;;;;;;15.53;14.00;;;25.90;70.50;;;;;;5114065;28;20640;-71
2021/06/28 07:09:08;;;;;;;15.87;14.13;;;26.10;70.40;;;;;;5114088;28;20482;-71
2021/06/28 07:11:36;;;;;;;12.50;11.30;;;26.20;69.50;;;;;;5114893;28;20439;-71
2021/06/28 07:14:03;;;;;;;20.30;18.13;;;26.20;68.70;;;;;;5113926;28;20964;-71
2021/06/28 07:16:31;;;;;;;17.37;15.67;;;26.20;69.00;;;;;;5114080;28;20436;-72
2021/06/28 07:19:00;;;;;;;13.90;12.70;;;26.20;68.60;;;;;;5114179;28;20846;-72
2021/06/28 07:21:27;;;;;;;16.13;14.07;;;26.10;68.60;;;;;;5114166;28;20427;-72
2021/06/28 07:23:55;;;;;;;20.30;15.57;;;26.10;68.60;;;;;;5113885;28;20470;-71
2021/06/28 07:26:24;;;;;;;17.47;15.70;;;26.20;68.30;;;;;;5114141;28;20474;-71
2021/06/28 07:28:52;;;;;;;18.53;16.80;;;26.20;68.70;;;;;;5120250;28;20447;-71
2021/06/28 07:31:19;;;;;;;16.83;15.13;;;26.20;69.10;;;;;;5122149;28;20451;-71
2021/06/28 07:33:46;;;;;;;14.60;13.20;;;26.30;69.40;;;;;;5120828;28;20470;-71
2021/06/28 07:36:12;;;;;;;17.27;15.50;;;26.30;69.20;;;;;;5120765;28;20427;-72
2021/06/28 07:38:39;;;;;;;20.50;18.50;;;26.40;69.40;;;;;;5120610;28;20438;-71
2021/06/28 07:41:06;;;;;;;16.63;15.10;;;26.50;69.70;;;;;;5120669;28;20889;-71
2021/06/28 07:43:34;;;;;;;17.83;13.80;;;26.70;69.50;;;;;;5120601;28;20427;-71
2021/06/28 07:46:03;;;;;;;13.83;12.20;;;26.80;68.40;;;;;;5120515;28;20924;-71
2021/06/28 07:48:30;;;;;;;17.00;15.30;;;27.00;67.20;;;;;;5120526;28;20470;-73
2021/06/28 07:50:57;;;;;;;14.80;13.43;;;27.20;66.70;;;;;;5120602;28;20422;-71
2021/06/28 07:53:24;;;;;;;12.77;11.37;;;27.40;66.10;;;;;;5120415;28;20438;-72
2021/06/28 07:55:50;;;;;;;15.90;14.40;;;27.60;65.50;;;;;;5120381;28;20461;-71
2021/06/28 07:58:17;;;;;;;14.87;13.47;;;27.90;64.40;;;;;;5120535;28;20442;-72
2021/06/28 08:00:47;;;;;;;15.07;12.67;;;28.20;63.70;;;;;;5120213;28;20808;-71
2021/06/28 08:03:15;;;;;;;14.50;13.03;;;28.40;62.40;;;;;;5120482;28;20431;-71
2021/06/28 08:05:42;;;;;;;14.23;12.70;;;28.70;61.50;;;;;;5120395;28;20931;-72
2021/06/28 08:08:09;;;;;;;17.27;15.77;;;28.90;60.90;;;;;;5120402;28;20469;-72
2021/06/28 08:10:36;;;;;;;11.63;10.63;;;29.30;60.00;;;;;;5120405;28;20435;-73
2021/06/28 08:13:03;;;;;;;18.70;17.03;;;29.60;59.10;;;;;;5120309;28;20450;-73
2021/06/28 08:15:30;;;;;;;16.33;14.73;;;30.00;58.30;;;;;;5120392;28;20463;-72
2021/06/28 08:17:56;;;;;;;12.83;11.57;;;30.30;57.20;;;;;;5120646;28;20529;-72
2021/06/28 08:20:24;;;;;;;13.03;11.93;;;30.50;56.00;;;;;;5119969;28;20453;-71
2021/06/28 08:22:51;;;;;;;12.60;11.53;;;30.60;55.50;;;;;;5120257;28;20443;-71
2021/06/28 08:25:19;;;;;;;14.73;13.20;;;30.70;54.90;;;;;;5120320;28;20822;-72
2021/06/28 08:27:46;;;;;;;16.53;14.93;;;30.70;55.00;;;;;;5120229;28;20482;-72
2021/06/28 08:30:13;;;;;;;16.07;14.67;;;30.70;55.70;;;;;;5119911;28;20974;-72
2021/06/28 08:32:40;;;;;;;15.33;13.83;;;30.70;56.00;;;;;;5120465;28;20441;-72
2021/06/28 08:35:08;;;;;;;15.20;13.90;;;30.70;56.40;;;;;;5120176;28;20469;-72
2021/06/28 08:37:36;;;;;;;14.33;13.13;;;30.80;56.80;;;;;;5120445;28;20505;-72
2021/06/28 08:40:05;;;;;;;14.60;12.70;;;30.90;56.40;;;;;;5116711;28;20816;-72
2021/06/28 08:42:32;;;;;;;12.23;11.17;;;31.10;55.70;;;;;;5116828;28;20450;-73
2021/06/28 08:44:59;;;;;;;13.23;12.10;;;31.20;55.60;;;;;;5116782;28;20489;-73
2021/06/28 08:47:27;;;;;;;20.73;18.37;;;31.30;54.90;;;;;;5116733;28;20458;-73
2021/06/28 08:49:54;;;;;;;15.30;13.97;;;31.50;54.20;;;;;;5116667;28;20984;-73
2021/06/28 08:52:22;;;;;;;16.17;14.67;;;31.70;54.00;;;;;;5116667;28;20446;-74
2021/06/28 08:54:50;;;;;;;15.83;14.63;;;31.80;54.10;;;;;;5116953;28;20487;-76
2021/06/28 08:57:19;;;;;;;18.33;16.73;;;31.70;54.40;;;;;;5116297;28;20959;-75
2021/06/28 08:59:45;;;;;;;18.17;16.77;;;31.60;53.50;;;;;;5116780;28;20442;-74
2021/06/28 09:02:12;;;;;;;16.83;15.33;;;31.50;53.80;;;;;;5116607;28;20913;-73
2021/06/28 09:04:57;;;;;;;20.27;18.27;;;31.40;53.50;;;;;;5116441;28;20477;-75
2021/06/28 09:07:24;;;;;;;19.27;17.50;;;31.30;53.90;;;;;;5116941;28;20463;-74
2021/06/28 09:09:52;;;;;;;20.13;18.10;;;31.20;54.70;;;;;;5116256;28;20897;-76
2021/06/28 09:12:19;;;;;;;18.00;16.30;;;31.00;54.60;;;;;;5116434;28;20633;-74
2021/06/28 09:14:48;;;;;;;17.13;15.60;;;31.00;55.60;;;;;;5116545;28;20458;-74
2021/06/28 09:17:25;;;;;;;16.23;14.73;;;31.10;55.70;;;;;;5116794;28;20451;-74
2021/06/28 09:20:14;;;;;;;19.30;17.40;;;31.20;55.70;;;;;;5116718;28;20441;-74
2021/06/28 09:22:42;;;;;;;17.93;16.47;;;31.10;54.40;;;;;;5116794;28;20430;-75
2021/06/28 09:25:29;;;;;;;16.70;15.10;;;31.00;55.30;;;;;;5116585;28;20482;-74
2021/06/28 09:27:56;;;;;;;15.43;14.03;;;31.00;56.00;;;;;;5115962;28;20470;-74
2021/06/28 09:30:24;;;;;;;16.23;14.53;;;31.00;56.00;;;;;;5116490;28;20446;-74
2021/06/28 09:32:55;;;;;;;15.33;13.93;;;31.00;55.00;;;;;;5115920;28;20451;-75
2021/06/28 09:35:30;;;;;;;15.20;13.90;;;31.00;55.70;;;;;;5115825;28;20463;-74
2021/06/28 09:37:57;;;;;;;14.67;13.30;;;30.80;55.30;;;;;;5115866;28;20483;-74
2021/06/28 09:40:26;;;;;;;11.03;10.13;;;30.70;54.70;;;;;;5115877;28;20436;-74
2021/06/28 09:42:53;;;;;;;13.50;12.17;;;30.70;55.00;;;;;;5115754;28;20426;-74
2021/06/28 09:45:21;;;;;;;14.90;13.60;;;30.60;55.00;;;;;;5115259;28;20474;-74
2021/06/28 09:47:49;;;;;;;16.10;14.43;;;30.30;54.80;;;;;;5115791;28;20475;-74
2021/06/28 09:50:18;;;;;;;15.60;14.00;;;30.10;55.50;;;;;;5115347;28;20435;-74
2021/06/28 09:52:47;;;;;;;15.50;14.10;;;29.90;56.10;;;;;;5114546;28;20919;-74
2021/06/28 09:55:20;;;;;;;13.40;12.10;;;29.70;56.90;;;;;;5115200;28;20854;-74
2021/06/28 09:58:09;;;;;;;14.60;12.13;;;29.50;57.20;;;;;;5115448;28;20488;-75
2021/06/28 10:00:38;;;;;;;13.40;11.97;;;29.30;57.40;;;;;;5115430;28;20427;-75
2021/06/28 10:03:06;;;;;;;15.27;13.67;;;29.20;57.70;;;;;;5115134;28;20931;-74
2021/06/28 10:05:37;;;;;;;15.63;14.13;;;29.00;59.00;;;;;;5115272;28;20474;-75
2021/06/28 10:08:14;;;;;;;13.77;12.60;;;28.80;60.50;;;;;;5115186;28;20461;-75
2021/06/28 10:10:41;;;;;;;16.80;15.20;;;28.50;61.60;;;;;;5114890;28;20817;-73
2021/06/28 10:13:10;;;;;;;17.87;16.23;;;28.30;62.30;;;;;;5115172;28;20433;-74
2021/06/28 10:15:40;;;;;;;15.60;14.00;;;28.30;62.70;;;;;;5114808;28;20963;-75
2021/06/28 10:18:09;;;;;;;18.20;15.10;;;28.30;64.20;;;;;;5115125;28;20447;-75
2021/06/28 10:20:38;;;;;;;14.57;12.70;;;28.30;64.30;;;;;;5114732;28;20434;-73
2021/06/28 10:23:06;;;;;;;14.50;13.00;;;28.50;64.40;;;;;;5115047;28;20465;-75
2021/06/28 10:25:34;;;;;;;16.87;15.17;;;28.70;64.20;;;;;;5114923;28;20459;-74
2021/06/28 10:28:04;;;;;;;16.03;13.83;;;28.90;63.60;;;;;;5114879;28;20467;-74
2021/06/28 10:30:32;;;;;;;14.50;13.10;;;29.10;62.60;;;;;;5114555;28;20442;-75
2021/06/28 10:33:03;;;;;;;15.07;13.60;;;29.10;59.80;;;;;;5114803;28;20431;-74
2021/06/28 10:35:33;;;;;;;11.80;10.60;;;29.20;59.60;;;;;;5115381;28;20931;-74
2021/06/28 10:38:05;;;;;;;13.77;12.10;;;29.20;59.30;;;;;;5114407;28;20459;-73
2021/06/28 10:40:55;;;;;;;13.87;12.60;;;29.20;59.90;;;;;;5114613;28;20433;-74
2021/06/28 10:43:27;;;;;;;12.00;10.40;;;29.20;60.30;;;;;;5114546;28;20953;-74
2021/06/28 10:45:56;;;;;;;10.30;9.50;;;29.20;60.10;;;;;;5114925;28;20422;-74
2021/06/28 10:48:24;;;;;;;10.13;9.10;;;29.20;58.90;;;;;;5114780;28;20462;-75
2021/06/28 10:50:57;;;;;;;9.20;8.33;;;29.40;58.20;;;;;;5114621;28;20474;-75
2021/06/28 10:54:00;;;;;;;8.17;7.47;;;29.50;57.90;;;;;;5114524;28;20450;-74
2021/06/28 10:56:54;;;;;;;9.77;8.97;;;29.90;55.00;;;;;;5114498;28;20458;-75
2021/06/28 10:59:29;;;;;;;9.50;8.70;;;30.50;55.40;;;;;;5114734;28;20499;-74
2021/06/28 11:02:09;;;;;;;9.07;8.17;;;31.10;53.00;;;;;;5114378;28;20433;-74
2021/06/28 11:04:38;;;;;;;7.67;7.07;;;31.90;52.10;;;;;;5114370;28;21047;-74
2021/06/28 11:07:10;;;;;;;8.37;7.57;;;33.00;49.40;;;;;;5114498;28;20438;-73
2021/06/28 11:09:43;;;;;;;7.03;6.53;;;34.20;48.00;;;;;;5115952;28;20414;-74
2021/06/28 11:12:33;;;;;;;8.20;7.00;;;35.50;45.40;;;;;;5116390;28;20426;-75
2021/06/28 11:15:06;;;;;;;6.30;5.70;;;36.90;37.20;;;;;;5115851;28;20462;-75
2021/06/28 11:17:45;;;;;;;8.07;6.53;;;37.80;36.20;;;;;;5115341;28;20434;-75
2021/06/28 11:20:38;;;;;;;5.13;4.63;;;38.60;33.90;;;;;;5114447;28;20854;-76
2021/06/28 11:23:07;;;;;;;6.97;5.07;;;39.30;30.60;;;;;;5114147;28;20196;-76
2021/06/28 11:25:46;;;;;;;5.95;5.22;;;39.90;29.90;;;;;;5113909;28;20223;-76
2021/06/28 11:28:16;;;;;;;6.95;5.18;;;39.90;29.50;;;;;;5113869;28;20204;-76
2021/06/28 11:30:49;;;;;;;5.30;4.90;;;40.00;29.20;;;;;;5113876;28;20196;-75
2021/06/28 11:33:31;;;;;;;6.82;5.13;;;40.50;30.00;;;;;;5113891;28;20204;-75
2021/06/28 11:35:58;;;;;;;5.20;4.80;;;41.00;28.10;;;;;;5114020;28;20214;-76
2021/06/28 11:38:26;;;;;;;5.22;4.93;;;41.50;27.90;;;;;;5114038;28;20273;-76
2021/06/28 11:40:55;;;;;;;4.82;4.28;;;42.00;27.10;;;;;;5113889;28;20189;-76
2021/06/28 11:43:36;;;;;;;4.55;4.25;;;42.30;26.20;;;;;;5113585;28;20625;-76
2021/06/28 11:46:04;;;;;;;5.55;4.93;;;42.40;25.40;;;;;;5114390;28;20188;-75
2021/06/28 11:48:37;;;;;;;3.80;3.60;;;42.70;26.20;;;;;;5114153;28;20224;-75
2021/06/28 11:51:14;;;;;;;4.40;4.00;;;43.00;25.30;;;;;;5114328;28;20196;-76
2021/06/28 11:53:42;;;;;;;4.57;4.28;;;43.40;26.10;;;;;;5113909;28;20235;-76
2021/06/28 11:56:19;;;;;;;5.10;4.60;;;44.00;26.30;;;;;;5113775;28;20622;-76
2021/06/28 11:58:53;;;;;;;4.93;4.53;;;44.30;23.80;;;;;;5113935;28;20184;-76
2021/06/28 12:01:22;;;;;;;4.30;4.00;;;44.50;23.20;;;;;;5113781;28;20234;-76
2021/06/28 12:03:51;;;;;;;4.50;4.20;;;44.60;23.40;;;;;;5113929;28;20260;-76
2021/06/28 12:06:18;;;;;;;4.22;3.92;;;44.20;23.40;;;;;;5113980;28;20188;-75
2021/06/28 12:08:45;;;;;;;5.00;4.60;;;43.30;24.50;;;;;;5113787;28;20217;-75
2021/06/28 12:11:13;;;;;;;4.43;4.10;;;42.30;25.30;;;;;;5113700;28;20189;-75
2021/06/28 12:13:41;;;;;;;4.80;4.50;;;41.20;26.20;;;;;;5113972;28;20227;-75
2021/06/28 12:16:17;;;;;;;4.90;4.50;;;39.90;27.20;;;;;;5117389;28;20197;-75
2021/06/28 12:18:43;;;;;;;5.30;4.93;;;38.40;29.50;;;;;;5117543;28;20184;-75
2021/06/28 12:21:12;;;;;;;5.30;4.90;;;37.20;31.60;;;;;;5117636;28;20207;-75
2021/06/28 12:23:38;;;;;;;5.67;5.23;;;36.20;33.10;;;;;;5117401;28;20433;-75
2021/06/28 12:26:10;;;;;;;5.87;5.37;;;35.40;34.60;;;;;;5117441;28;20438;-76
2021/06/28 12:28:37;;;;;;;5.23;4.90;;;34.70;36.60;;;;;;5117351;28;20462;-76
2021/06/28 12:31:14;;;;;;;6.47;5.87;;;34.20;37.40;;;;;;5117389;28;20430;-75
2021/06/28 12:33:41;;;;;;;6.57;5.87;;;33.70;38.50;;;;;;5117290;28;20473;-75
2021/06/28 12:36:08;;;;;;;5.83;5.43;;;33.80;39.70;;;;;;5117221;28;20437;-74
2021/06/28 12:38:36;;;;;;;7.90;5.30;;;34.80;40.30;;;;;;5117460;28;20430;-74
2021/06/28 12:41:05;;;;;;;5.83;5.33;;;36.40;37.40;;;;;;5117157;28;20449;-75
2021/06/28 12:43:32;;;;;;;5.60;5.20;;;38.10;32.70;;;;;;5116812;28;20437;-75
2021/06/28 12:45:59;;;;;;;7.93;5.70;;;39.40;29.80;;;;;;5117197;28;20204;-76
2021/06/28 12:48:28;;;;;;;6.00;4.77;;;39.30;29.00;;;;;;5116896;28;20222;-76